sensor_id;sensor_type;location;lat;lon;timestamp;temperature;humidity
27368;DHT22;14839;48.106;11.618;2023-12-28T05:01:32;0.80;94.20
27368;DHT22;14839;48.106;11.618;2023-12-28T05:03:58;0.80;94.00
27368;DHT22;14839;48.106;11.618;2023-12-28T05:06:24;0.80;94.40
27368;DHT22;14839;48.106;11.618;2023-12-28T05:08:52;0.80;94.40
27368;DHT22;14839;48.106;11.618;2023-12-28T05:11:18;0.90;94.00
27368;DHT22;14839;48.106;11.618;2023-12-28T05:13:44;0.90;93.70
27368;DHT22;14839;48.106;11.618;2023-12-28T05:16:09;0.90;93.60
27368;DHT22;14839;48.106;11.618;2023-12-28T05:18:35;0.90;93.50
27368;DHT22;14839;48.106;11.618;2023-12-28T05:21:01;1.00;93.10
27368;DHT22;14839;48.106;11.618;2023-12-28T05:23:27;1.00;92.90
27368;DHT22;14839;48.106;11.618;2023-12-28T05:25:53;1.00;92.60
27368;DHT22;14839;48.106;11.618;2023-12-28T05:28:18;1.00;92.30
27368;DHT22;14839;48.106;11.618;2023-12-28T05:30:44;1.00;92.10
27368;DHT22;14839;48.106;11.618;2023-12-28T05:33:09;1.00;92.50
27368;DHT22;14839;48.106;11.618;2023-12-28T05:35:35;1.00;92.80
27368;DHT22;14839;48.106;11.618;2023-12-28T05:38:01;0.90;92.80
27368;DHT22;14839;48.106;11.618;2023-12-28T05:40:26;0.90;93.00
27368;DHT22;14839;48.106;11.618;2023-12-28T05:42:52;0.80;93.20
27368;DHT22;14839;48.106;11.618;2023-12-28T05:45:17;0.80;93.60
27368;DHT22;14839;48.106;11.618;2023-12-28T05:47:43;0.70;93.70
27368;DHT22;14839;48.106;11.618;2023-12-28T05:50:09;0.70;93.90
27368;DHT22;14839;48.106;11.618;2023-12-28T05:52:35;0.70;94.10
27368;DHT22;14839;48.106;11.618;2023-12-28T05:55:01;0.60;94.40
27368;DHT22;14839;48.106;11.618;2023-12-28T05:57:26;0.60;94.60
27368;DHT22;14839;48.106;11.618;2023-12-28T05:59:55;0.50;94.60
27368;DHT22;14839;48.106;11.618;2023-12-28T06:02:21;0.40;94.60
27368;DHT22;14839;48.106;11.618;2023-12-28T06:04:50;0.40;94.60
27368;DHT22;14839;48.106;11.618;2023-12-28T06:07:15;0.40;94.60
27368;DHT22;14839;48.106;11.618;2023-12-28T06:09:42;0.30;94.60
27368;DHT22;14839;48.106;11.618;2023-12-28T06:12:07;0.30;94.60
27368;DHT22;14839;48.106;11.618;2023-12-28T06:14:36;0.20;94.60
27368;DHT22;14839;48.106;11.618;2023-12-28T06:17:01;0.20;94.60
27368;DHT22;14839;48.106;11.618;2023-12-28T06:19:30;0.20;94.60
27368;DHT22;14839;48.106;11.618;2023-12-28T06:21:56;0.10;94.60
27368;DHT22;14839;48.106;11.618;2023-12-28T06:24:24;0.10;94.60
27368;DHT22;14839;48.106;11.618;2023-12-28T06:26:53;0.10;94.60
27368;DHT22;14839;48.106;11.618;2023-12-28T06:29:18;0.10;94.60
27368;DHT22;14839;48.106;11.618;2023-12-28T06:31:44;0.10;94.60
27368;DHT22;14839;48.106;11.618;2023-12-28T06:34:10;0.00;94.60
27368;DHT22;14839;48.106;11.618;2023-12-28T06:36:36;0.00;94.60
27368;DHT22;14839;48.106;11.618;2023-12-28T06:39:01;0.00;94.60
27368;DHT22;14839;48.106;11.618;2023-12-28T06:41:27;0.10;94.60
27368;DHT22;14839;48.106;11.618;2023-12-28T06:43:53;0.10;94.60
27368;DHT22;14839;48.106;11.618;2023-12-28T06:46:19;0.10;94.60
27368;DHT22;14839;48.106;11.618;2023-12-28T06:48:48;0.10;94.60
27368;DHT22;14839;48.106;11.618;2023-12-28T06:51:39;0.10;94.60
27368;DHT22;14839;48.106;11.618;2023-12-28T06:54:04;0.10;94.60
27368;DHT22;14839;48.106;11.618;2023-12-28T06:56:30;0.10;94.60
27368;DHT22;14839;48.106;11.618;2023-12-28T06:58:56;0.10;94.60
27368;DHT22;14839;48.106;11.618;2023-12-28T07:01:21;0.10;94.60
27368;DHT22;14839;48.106;11.618;2023-12-28T07:03:47;0.10;94.60
27368;DHT22;14839;48.106;11.618;2023-12-28T07:06:13;0.10;94.60
27368;DHT22;14839;48.106;11.618;2023-12-28T07:08:49;0.10;94.60
27368;DHT22;14839;48.106;11.618;2023-12-28T07:11:18;0.10;94.60
27368;DHT22;14839;48.106;11.618;2023-12-28T07:13:43;0.20;94.60
27368;DHT22;14839;48.106;11.618;2023-12-28T07:16:16;0.20;94.60
27368;DHT22;14839;48.106;11.618;2023-12-28T07:18:45;0.30;94.60
27368;DHT22;14839;48.106;11.618;2023-12-28T07:21:13;0.30;94.60
27368;DHT22;14839;48.106;11.618;2023-12-28T07:23:39;0.40;94.60
27368;DHT22;14839;48.106;11.618;2023-12-28T07:26:07;0.40;94.60
27368;DHT22;14839;48.106;11.618;2023-12-28T07:28:33;0.50;94.60
27368;DHT22;14839;48.106;11.618;2023-12-28T07:30:59;0.50;94.60
27368;DHT22;14839;48.106;11.618;2023-12-28T07:33:25;0.60;94.60
27368;DHT22;14839;48.106;11.618;2023-12-28T07:35:53;0.60;94.60
27368;DHT22;14839;48.106;11.618;2023-12-28T07:38:19;0.70;94.60
27368;DHT22;14839;48.106;11.618;2023-12-28T07:40:44;0.80;94.60
27368;DHT22;14839;48.106;11.618;2023-12-28T07:43:12;0.90;94.60
27368;DHT22;14839;48.106;11.618;2023-12-28T07:45:38;1.00;94.60
27368;DHT22;14839;48.106;11.618;2023-12-28T07:48:04;1.20;94.60
27368;DHT22;14839;48.106;11.618;2023-12-28T07:50:30;1.30;94.60
27368;DHT22;14839;48.106;11.618;2023-12-28T07:52:59;1.30;94.60
27368;DHT22;14839;48.106;11.618;2023-12-28T07:55:25;1.40;94.60
27368;DHT22;14839;48.106;11.618;2023-12-28T07:57:52;1.50;94.20
27368;DHT22;14839;48.106;11.618;2023-12-28T08:00:17;1.60;94.30
27368;DHT22;14839;48.106;11.618;2023-12-28T08:02:43;1.80;94.00
27368;DHT22;14839;48.106;11.618;2023-12-28T08:05:09;2.00;94.20
27368;DHT22;14839;48.106;11.618;2023-12-28T08:07:40;2.20;94.10
27368;DHT22;14839;48.106;11.618;2023-12-28T08:10:07;2.40;93.50
27368;DHT22;14839;48.106;11.618;2023-12-28T08:12:32;2.60;93.10
27368;DHT22;14839;48.106;11.618;2023-12-28T08:14:59;2.90;92.30
27368;DHT22;14839;48.106;11.618;2023-12-28T08:17:25;3.40;91.40
27368;DHT22;14839;48.106;11.618;2023-12-28T08:19:51;4.10;88.40
27368;DHT22;14839;48.106;11.618;2023-12-28T08:22:16;4.60;87.70
27368;DHT22;14839;48.106;11.618;2023-12-28T08:24:45;5.10;85.30
27368;DHT22;14839;48.106;11.618;2023-12-28T08:27:13;5.60;82.70
27368;DHT22;14839;48.106;11.618;2023-12-28T08:29:42;6.30;79.30
27368;DHT22;14839;48.106;11.618;2023-12-28T08:32:08;7.20;73.30
27368;DHT22;14839;48.106;11.618;2023-12-28T08:34:34;8.00;69.80
27368;DHT22;14839;48.106;11.618;2023-12-28T08:36:59;8.70;66.10
27368;DHT22;14839;48.106;11.618;2023-12-28T08:39:25;9.40;64.40
27368;DHT22;14839;48.106;11.618;2023-12-28T08:41:51;10.10;60.00
27368;DHT22;14839;48.106;11.618;2023-12-28T08:44:16;10.70;57.30
27368;DHT22;14839;48.106;11.618;2023-12-28T08:46:42;10.90;57.00
27368;DHT22;14839;48.106;11.618;2023-12-28T08:49:08;11.30;58.40
27368;DHT22;14839;48.106;11.618;2023-12-28T08:51:33;11.70;56.60
27368;DHT22;14839;48.106;11.618;2023-12-28T08:53:59;12.00;55.80
27368;DHT22;14839;48.106;11.618;2023-12-28T08:56:24;12.30;53.50
27368;DHT22;14839;48.106;11.618;2023-12-28T08:58:50;12.30;52.00
27368;DHT22;14839;48.106;11.618;2023-12-28T09:01:18;12.50;53.50
27368;DHT22;14839;48.106;11.618;2023-12-28T09:03:44;12.50;53.00
27368;DHT22;14839;48.106;11.618;2023-12-28T09:06:10;12.40;53.50
27368;DHT22;14839;48.106;11.618;2023-12-28T09:08:35;12.60;52.40
27368;DHT22;14839;48.106;11.618;2023-12-28T09:11:01;12.50;51.70
27368;DHT22;14839;48.106;11.618;2023-12-28T09:13:27;12.50;52.20
27368;DHT22;14839;48.106;11.618;2023-12-28T09:15:52;12.50;51.40
27368;DHT22;14839;48.106;11.618;2023-12-28T09:18:18;12.60;51.10
27368;DHT22;14839;48.106;11.618;2023-12-28T09:20:44;12.40;50.50
27368;DHT22;14839;48.106;11.618;2023-12-28T09:23:09;12.50;50.50
27368;DHT22;14839;48.106;11.618;2023-12-28T09:25:36;12.60;51.40
27368;DHT22;14839;48.106;11.618;2023-12-28T09:28:04;12.70;50.40
27368;DHT22;14839;48.106;11.618;2023-12-28T09:30:30;12.90;51.40
27368;DHT22;14839;48.106;11.618;2023-12-28T09:32:55;12.90;50.80
27368;DHT22;14839;48.106;11.618;2023-12-28T09:35:21;12.90;50.50
27368;DHT22;14839;48.106;11.618;2023-12-28T09:37:47;12.90;51.00
27368;DHT22;14839;48.106;11.618;2023-12-28T09:40:12;12.80;50.40
27368;DHT22;14839;48.106;11.618;2023-12-28T09:42:53;12.80;49.50
27368;DHT22;14839;48.106;11.618;2023-12-28T09:45:22;12.80;49.90
27368;DHT22;14839;48.106;11.618;2023-12-28T09:47:48;12.60;49.90
27368;DHT22;14839;48.106;11.618;2023-12-28T09:50:17;12.50;49.50
27368;DHT22;14839;48.106;11.618;2023-12-28T09:52:43;12.50;50.70
27368;DHT22;14839;48.106;11.618;2023-12-28T09:55:12;12.60;52.70
27368;DHT22;14839;48.106;11.618;2023-12-28T09:58:03;12.60;52.70
27368;DHT22;14839;48.106;11.618;2023-12-28T10:00:37;12.70;51.00
27368;DHT22;14839;48.106;11.618;2023-12-28T10:04:07;12.70;54.40
27368;DHT22;14839;48.106;11.618;2023-12-28T10:07:26;12.70;51.90
27368;DHT22;14839;48.106;11.618;2023-12-28T10:10:45;12.80;51.00
27368;DHT22;14839;48.106;11.618;2023-12-28T10:13:23;12.90;50.50
27368;DHT22;14839;48.106;11.618;2023-12-28T10:16:12;12.70;51.00
27368;DHT22;14839;48.106;11.618;2023-12-28T10:18:43;12.70;50.40
27368;DHT22;14839;48.106;11.618;2023-12-28T10:21:29;12.80;49.60
27368;DHT22;14839;48.106;11.618;2023-12-28T10:23:55;12.90;49.60
27368;DHT22;14839;48.106;11.618;2023-12-28T10:26:21;12.70;50.10
27368;DHT22;14839;48.106;11.618;2023-12-28T10:28:46;12.70;50.40
27368;DHT22;14839;48.106;11.618;2023-12-28T10:31:12;13.00;49.60
27368;DHT22;14839;48.106;11.618;2023-12-28T10:33:40;13.00;49.30
27368;DHT22;14839;48.106;11.618;2023-12-28T10:36:07;13.00;49.60
27368;DHT22;14839;48.106;11.618;2023-12-28T10:38:37;13.10;48.90
27368;DHT22;14839;48.106;11.618;2023-12-28T10:41:09;13.30;47.30
27368;DHT22;14839;48.106;11.618;2023-12-28T10:43:45;13.20;48.90
27368;DHT22;14839;48.106;11.618;2023-12-28T10:46:27;13.30;49.30
27368;DHT22;14839;48.106;11.618;2023-12-28T10:49:15;13.40;47.60
27368;DHT22;14839;48.106;11.618;2023-12-28T10:51:43;13.30;49.30
27368;DHT22;14839;48.106;11.618;2023-12-28T10:57:04;13.50;47.10
27368;DHT22;14839;48.106;11.618;2023-12-28T11:02:07;13.50;46.70
27368;DHT22;14839;48.106;11.618;2023-12-28T11:04:40;13.40;48.90
27368;DHT22;14839;48.106;11.618;2023-12-28T11:07:09;13.40;49.00
27368;DHT22;14839;48.106;11.618;2023-12-28T11:09:35;13.50;49.00
27368;DHT22;14839;48.106;11.618;2023-12-28T11:12:04;13.50;48.50
27368;DHT22;14839;48.106;11.618;2023-12-28T11:14:33;13.40;47.60
27368;DHT22;14839;48.106;11.618;2023-12-28T11:16:59;13.30;47.10
27368;DHT22;14839;48.106;11.618;2023-12-28T11:19:29;13.30;47.70
27368;DHT22;14839;48.106;11.618;2023-12-28T11:21:55;13.30;46.50
27368;DHT22;14839;48.106;11.618;2023-12-28T11:24:22;13.20;49.20
27368;DHT22;14839;48.106;11.618;2023-12-28T11:26:58;13.10;49.20
27368;DHT22;14839;48.106;11.618;2023-12-28T11:29:24;13.20;47.70
27368;DHT22;14839;48.106;11.618;2023-12-28T11:31:54;13.20;48.20
27368;DHT22;14839;48.106;11.618;2023-12-28T11:34:32;13.10;48.20
27368;DHT22;14839;48.106;11.618;2023-12-28T11:37:04;13.10;49.00
27368;DHT22;14839;48.106;11.618;2023-12-28T11:39:38;13.20;49.50
27368;DHT22;14839;48.106;11.618;2023-12-28T11:42:09;13.10;49.30
27368;DHT22;14839;48.106;11.618;2023-12-28T11:44:42;13.10;48.30
27368;DHT22;14839;48.106;11.618;2023-12-28T11:47:12;13.30;49.50
27368;DHT22;14839;48.106;11.618;2023-12-28T11:49:38;13.20;49.90
27368;DHT22;14839;48.106;11.618;2023-12-28T11:52:05;13.20;50.20
27368;DHT22;14839;48.106;11.618;2023-12-28T11:54:34;13.10;50.10
27368;DHT22;14839;48.106;11.618;2023-12-28T11:57:03;13.20;50.80
27368;DHT22;14839;48.106;11.618;2023-12-28T11:59:29;13.10;50.70
27368;DHT22;14839;48.106;11.618;2023-12-28T12:01:59;13.10;49.20
27368;DHT22;14839;48.106;11.618;2023-12-28T12:04:25;13.10;50.50
27368;DHT22;14839;48.106;11.618;2023-12-28T12:06:50;13.00;49.30
27368;DHT22;14839;48.106;11.618;2023-12-28T12:09:20;12.90;49.80
27368;DHT22;14839;48.106;11.618;2023-12-28T12:11:48;12.90;50.20
27368;DHT22;14839;48.106;11.618;2023-12-28T12:14:14;13.00;49.90
27368;DHT22;14839;48.106;11.618;2023-12-28T12:16:39;13.00;49.80
27368;DHT22;14839;48.106;11.618;2023-12-28T12:19:08;13.00;50.10
27368;DHT22;14839;48.106;11.618;2023-12-28T12:21:35;12.90;50.70
27368;DHT22;14839;48.106;11.618;2023-12-28T12:24:01;12.90;50.70
27368;DHT22;14839;48.106;11.618;2023-12-28T12:26:28;13.00;51.40
27368;DHT22;14839;48.106;11.618;2023-12-28T12:28:58;12.90;49.50
27368;DHT22;14839;48.106;11.618;2023-12-28T12:31:25;12.80;51.30
27368;DHT22;14839;48.106;11.618;2023-12-28T12:33:51;12.70;50.50
27368;DHT22;14839;48.106;11.618;2023-12-28T12:36:17;12.70;51.40
27368;DHT22;14839;48.106;11.618;2023-12-28T12:38:43;12.60;52.20
27368;DHT22;14839;48.106;11.618;2023-12-28T12:41:10;12.50;52.20
27368;DHT22;14839;48.106;11.618;2023-12-28T12:43:37;12.40;51.60
27368;DHT22;14839;48.106;11.618;2023-12-28T12:46:04;12.40;52.00
27368;DHT22;14839;48.106;11.618;2023-12-28T12:48:29;12.30;51.70
27368;DHT22;14839;48.106;11.618;2023-12-28T12:50:55;12.30;52.70
27368;DHT22;14839;48.106;11.618;2023-12-28T12:53:21;12.20;51.90
27368;DHT22;14839;48.106;11.618;2023-12-28T12:55:47;12.20;52.00
27368;DHT22;14839;48.106;11.618;2023-12-28T12:58:14;12.10;52.30
27368;DHT22;14839;48.106;11.618;2023-12-28T13:00:42;12.10;52.90
27368;DHT22;14839;48.106;11.618;2023-12-28T13:03:10;12.10;53.50
27368;DHT22;14839;48.106;11.618;2023-12-28T13:05:37;12.10;53.00
27368;DHT22;14839;48.106;11.618;2023-12-28T13:08:04;12.10;53.20
27368;DHT22;14839;48.106;11.618;2023-12-28T13:10:30;12.10;53.20
27368;DHT22;14839;48.106;11.618;2023-12-28T13:12:56;12.20;53.90
27368;DHT22;14839;48.106;11.618;2023-12-28T13:15:22;12.10;54.10
27368;DHT22;14839;48.106;11.618;2023-12-28T13:17:47;12.20;53.60
27368;DHT22;14839;48.106;11.618;2023-12-28T13:20:13;12.20;53.90
27368;DHT22;14839;48.106;11.618;2023-12-28T13:22:39;12.20;53.80
27368;DHT22;14839;48.106;11.618;2023-12-28T13:25:05;12.20;54.20
27368;DHT22;14839;48.106;11.618;2023-12-28T13:27:31;12.20;54.10
27368;DHT22;14839;48.106;11.618;2023-12-28T13:29:57;12.20;54.10
27368;DHT22;14839;48.106;11.618;2023-12-28T13:32:23;12.20;53.90
27368;DHT22;14839;48.106;11.618;2023-12-28T13:34:49;12.20;54.20
27368;DHT22;14839;48.106;11.618;2023-12-28T13:37:16;12.20;55.00
27368;DHT22;14839;48.106;11.618;2023-12-28T13:39:42;12.10;54.70
27368;DHT22;14839;48.106;11.618;2023-12-28T13:42:08;12.10;54.70
27368;DHT22;14839;48.106;11.618;2023-12-28T13:44:34;12.10;54.80
27368;DHT22;14839;48.106;11.618;2023-12-28T13:47:01;12.10;55.50
27368;DHT22;14839;48.106;11.618;2023-12-28T13:49:27;12.10;55.40
27368;DHT22;14839;48.106;11.618;2023-12-28T13:51:53;12.00;55.80
27368;DHT22;14839;48.106;11.618;2023-12-28T13:54:18;12.00;55.30
27368;DHT22;14839;48.106;11.618;2023-12-28T13:56:47;12.00;56.00
27368;DHT22;14839;48.106;11.618;2023-12-28T13:59:13;11.90;56.10
27368;DHT22;14839;48.106;11.618;2023-12-28T14:01:39;11.80;56.30
27368;DHT22;14839;48.106;11.618;2023-12-28T14:04:05;11.80;56.30
27368;DHT22;14839;48.106;11.618;2023-12-28T14:06:31;11.70;56.70
27368;DHT22;14839;48.106;11.618;2023-12-28T14:08:57;11.70;56.90
27368;DHT22;14839;48.106;11.618;2023-12-28T14:11:23;11.60;56.60
27368;DHT22;14839;48.106;11.618;2023-12-28T14:13:49;11.60;56.90
27368;DHT22;14839;48.106;11.618;2023-12-28T14:16:15;11.60;56.90
27368;DHT22;14839;48.106;11.618;2023-12-28T14:18:40;11.60;57.30
27368;DHT22;14839;48.106;11.618;2023-12-28T14:21:08;11.50;57.30
27368;DHT22;14839;48.106;11.618;2023-12-28T14:23:35;11.50;57.90
27368;DHT22;14839;48.106;11.618;2023-12-28T14:26:03;11.50;58.20
27368;DHT22;14839;48.106;11.618;2023-12-28T14:28:31;11.50;58.20
27368;DHT22;14839;48.106;11.618;2023-12-28T14:30:59;11.50;57.90
27368;DHT22;14839;48.106;11.618;2023-12-28T14:33:25;11.50;58.20
27368;DHT22;14839;48.106;11.618;2023-12-28T14:35:51;11.40;58.50
27368;DHT22;14839;48.106;11.618;2023-12-28T14:38:16;11.40;58.20
27368;DHT22;14839;48.106;11.618;2023-12-28T14:40:42;11.40;58.20
27368;DHT22;14839;48.106;11.618;2023-12-28T14:43:08;11.30;58.70
27368;DHT22;14839;48.106;11.618;2023-12-28T14:45:33;11.30;58.80
27368;DHT22;14839;48.106;11.618;2023-12-28T14:47:59;11.20;58.80
27368;DHT22;14839;48.106;11.618;2023-12-28T14:50:24;11.20;58.70
27368;DHT22;14839;48.106;11.618;2023-12-28T14:52:50;11.20;58.50
27368;DHT22;14839;48.106;11.618;2023-12-28T14:55:15;11.10;59.10
27368;DHT22;14839;48.106;11.618;2023-12-28T14:57:41;11.00;59.20
27368;DHT22;14839;48.106;11.618;2023-12-28T15:00:07;11.00;59.50
27368;DHT22;14839;48.106;11.618;2023-12-28T15:02:35;10.90;59.70
27368;DHT22;14839;48.106;11.618;2023-12-28T15:05:00;10.90;59.70
27368;DHT22;14839;48.106;11.618;2023-12-28T15:07:26;10.80;59.80
27368;DHT22;14839;48.106;11.618;2023-12-28T15:09:52;10.80;59.70
27368;DHT22;14839;48.106;11.618;2023-12-28T15:12:23;10.70;59.80
27368;DHT22;14839;48.106;11.618;2023-12-28T15:14:49;10.60;60.00
27368;DHT22;14839;48.106;11.618;2023-12-28T15:17:16;10.60;59.80
27368;DHT22;14839;48.106;11.618;2023-12-28T15:19:41;10.60;60.00
27368;DHT22;14839;48.106;11.618;2023-12-28T15:22:07;10.50;60.10
27368;DHT22;14839;48.106;11.618;2023-12-28T15:24:33;10.50;60.20
27368;DHT22;14839;48.106;11.618;2023-12-28T15:26:59;10.40;60.70
27368;DHT22;14839;48.106;11.618;2023-12-28T15:29:25;10.30;61.10
27368;DHT22;14839;48.106;11.618;2023-12-28T15:31:51;10.20;61.40
27368;DHT22;14839;48.106;11.618;2023-12-28T15:34:16;10.20;61.70
27368;DHT22;14839;48.106;11.618;2023-12-28T15:36:43;10.10;61.70
27368;DHT22;14839;48.106;11.618;2023-12-28T15:39:08;10.10;62.00
27368;DHT22;14839;48.106;11.618;2023-12-28T15:41:34;10.00;62.80
27368;DHT22;14839;48.106;11.618;2023-12-28T15:43:59;10.00;63.50
27368;DHT22;14839;48.106;11.618;2023-12-28T15:46:25;9.90;63.50
27368;DHT22;14839;48.106;11.618;2023-12-28T15:48:50;9.90;63.80
27368;DHT22;14839;48.106;11.618;2023-12-28T15:51:16;9.80;64.70
27368;DHT22;14839;48.106;11.618;2023-12-28T15:53:42;9.80;64.70
27368;DHT22;14839;48.106;11.618;2023-12-28T15:56:07;9.80;64.40
27368;DHT22;14839;48.106;11.618;2023-12-28T15:58:33;9.70;64.70
27368;DHT22;14839;48.106;11.618;2023-12-28T16:00:58;9.70;64.90
27368;DHT22;14839;48.106;11.618;2023-12-28T16:03:24;9.70;64.90
27368;DHT22;14839;48.106;11.618;2023-12-28T16:05:50;9.70;64.90
27368;DHT22;14839;48.106;11.618;2023-12-28T16:08:15;9.60;65.50
27368;DHT22;14839;48.106;11.618;2023-12-28T16:10:41;9.60;64.90
27368;DHT22;14839;48.106;11.618;2023-12-28T16:13:06;9.60;64.70
27368;DHT22;14839;48.106;11.618;2023-12-28T16:15:32;9.60;65.00
27368;DHT22;14839;48.106;11.618;2023-12-28T16:17:58;9.60;65.50
27368;DHT22;14839;48.106;11.618;2023-12-28T16:20:24;9.60;64.90
27368;DHT22;14839;48.106;11.618;2023-12-28T16:22:50;9.60;64.70
27368;DHT22;14839;48.106;11.618;2023-12-28T16:25:16;9.60;64.40
27368;DHT22;14839;48.106;11.618;2023-12-28T16:27:41;9.60;64.60
27368;DHT22;14839;48.106;11.618;2023-12-28T16:30:08;9.60;64.40
27368;DHT22;14839;48.106;11.618;2023-12-28T16:32:33;9.50;64.70
27368;DHT22;14839;48.106;11.618;2023-12-28T16:34:59;9.60;64.60
27368;DHT22;14839;48.106;11.618;2023-12-28T16:37:25;9.60;64.40
27368;DHT22;14839;48.106;11.618;2023-12-28T16:39:50;9.60;64.70
27368;DHT22;14839;48.106;11.618;2023-12-28T16:42:16;9.60;64.70
27368;DHT22;14839;48.106;11.618;2023-12-28T16:44:42;9.60;64.60
27368;DHT22;14839;48.106;11.618;2023-12-28T16:47:10;9.60;64.60
27368;DHT22;14839;48.106;11.618;2023-12-28T16:49:39;9.60;64.70
27368;DHT22;14839;48.106;11.618;2023-12-28T16:52:05;9.60;64.70
27368;DHT22;14839;48.106;11.618;2023-12-28T16:54:32;9.60;64.70
27368;DHT22;14839;48.106;11.618;2023-12-28T16:56:57;9.60;64.60
27368;DHT22;14839;48.106;11.618;2023-12-28T16:59:23;9.70;64.40
27368;DHT22;14839;48.106;11.618;2023-12-28T17:01:48;9.70;64.40
27368;DHT22;14839;48.106;11.618;2023-12-28T17:04:15;9.70;64.30
27368;DHT22;14839;48.106;11.618;2023-12-28T17:06:41;9.70;64.00
27368;DHT22;14839;48.106;11.618;2023-12-28T17:09:07;9.70;63.70
27368;DHT22;14839;48.106;11.618;2023-12-28T17:11:33;9.80;64.00
27368;DHT22;14839;48.106;11.618;2023-12-28T17:13:59;9.80;63.40
27368;DHT22;14839;48.106;11.618;2023-12-28T17:16:25;9.90;63.50
27368;DHT22;14839;48.106;11.618;2023-12-28T17:18:51;9.90;63.40
27368;DHT22;14839;48.106;11.618;2023-12-28T17:21:20;9.90;63.70
27368;DHT22;14839;48.106;11.618;2023-12-28T17:23:51;10.00;62.90
27368;DHT22;14839;48.106;11.618;2023-12-28T17:26:25;10.10;62.50
27368;DHT22;14839;48.106;11.618;2023-12-28T17:29:04;10.20;62.30
27368;DHT22;14839;48.106;11.618;2023-12-28T17:31:35;10.20;62.00
27368;DHT22;14839;48.106;11.618;2023-12-28T17:34:02;10.30;61.70
27368;DHT22;14839;48.106;11.618;2023-12-28T17:36:28;10.30;61.40
27368;DHT22;14839;48.106;11.618;2023-12-28T17:39:00;10.40;61.40
27368;DHT22;14839;48.106;11.618;2023-12-28T17:41:33;10.40;62.00
27368;DHT22;14839;48.106;11.618;2023-12-28T17:44:14;10.40;61.30
27368;DHT22;14839;48.106;11.618;2023-12-28T17:46:53;10.50;61.30
27368;DHT22;14839;48.106;11.618;2023-12-28T17:49:26;10.50;61.60
27368;DHT22;14839;48.106;11.618;2023-12-28T17:51:54;10.50;62.60
27368;DHT22;14839;48.106;11.618;2023-12-28T17:54:21;10.50;63.20
27368;DHT22;14839;48.106;11.618;2023-12-28T17:56:46;10.40;65.20
27368;DHT22;14839;48.106;11.618;2023-12-28T17:59:12;10.40;67.10
27368;DHT22;14839;48.106;11.618;2023-12-28T18:01:38;10.30;68.30
27368;DHT22;14839;48.106;11.618;2023-12-28T18:04:04;10.20;70.70
27368;DHT22;14839;48.106;11.618;2023-12-28T18:06:30;10.20;71.30
27368;DHT22;14839;48.106;11.618;2023-12-28T18:08:55;10.10;72.20
27368;DHT22;14839;48.106;11.618;2023-12-28T18:11:21;10.10;73.30
27368;DHT22;14839;48.106;11.618;2023-12-28T18:13:47;10.00;74.50
27368;DHT22;14839;48.106;11.618;2023-12-28T18:16:12;9.90;75.10
27368;DHT22;14839;48.106;11.618;2023-12-28T18:18:38;9.80;76.30
27368;DHT22;14839;48.106;11.618;2023-12-28T18:21:04;9.80;75.80
27368;DHT22;14839;48.106;11.618;2023-12-28T18:23:30;9.70;75.70
27368;DHT22;14839;48.106;11.618;2023-12-28T18:25:56;9.60;75.20
27368;DHT22;14839;48.106;11.618;2023-12-28T18:28:22;9.60;74.50
27368;DHT22;14839;48.106;11.618;2023-12-28T18:30:47;9.60;74.20
27368;DHT22;14839;48.106;11.618;2023-12-28T18:33:13;9.50;74.00
27368;DHT22;14839;48.106;11.618;2023-12-28T18:35:40;9.50;74.00
27368;DHT22;14839;48.106;11.618;2023-12-28T18:38:06;9.50;74.60
27368;DHT22;14839;48.106;11.618;2023-12-28T18:40:32;9.50;73.70
27368;DHT22;14839;48.106;11.618;2023-12-28T18:42:57;9.50;73.00
27368;DHT22;14839;48.106;11.618;2023-12-28T18:45:23;9.50;73.10
27368;DHT22;14839;48.106;11.618;2023-12-28T18:47:48;9.50;72.70
27368;DHT22;14839;48.106;11.618;2023-12-28T18:50:14;9.50;72.40
27368;DHT22;14839;48.106;11.618;2023-12-28T18:52:40;9.50;72.20
27368;DHT22;14839;48.106;11.618;2023-12-28T18:55:06;9.50;72.10
27368;DHT22;14839;48.106;11.618;2023-12-28T18:57:32;9.50;72.40
27368;DHT22;14839;48.106;11.618;2023-12-28T18:59:58;9.40;71.80
27368;DHT22;14839;48.106;11.618;2023-12-28T19:02:23;9.40;73.40
27368;DHT22;14839;48.106;11.618;2023-12-28T19:04:51;9.40;71.50
27368;DHT22;14839;48.106;11.618;2023-12-28T19:07:16;9.40;70.70
27368;DHT22;14839;48.106;11.618;2023-12-28T19:09:42;9.40;71.50
27368;DHT22;14839;48.106;11.618;2023-12-28T19:12:08;9.30;73.60
27368;DHT22;14839;48.106;11.618;2023-12-28T19:14:38;9.30;72.50
27368;DHT22;14839;48.106;11.618;2023-12-28T19:17:04;9.30;72.80
27368;DHT22;14839;48.106;11.618;2023-12-28T19:19:30;9.20;72.70
27368;DHT22;14839;48.106;11.618;2023-12-28T19:21:56;9.20;72.70
27368;DHT22;14839;48.106;11.618;2023-12-28T19:24:22;9.20;72.70
27368;DHT22;14839;48.106;11.618;2023-12-28T19:26:48;9.10;74.30
27368;DHT22;14839;48.106;11.618;2023-12-28T19:29:13;9.10;74.00
27368;DHT22;14839;48.106;11.618;2023-12-28T19:31:39;9.20;74.30
27368;DHT22;14839;48.106;11.618;2023-12-28T19:34:04;9.10;74.50
27368;DHT22;14839;48.106;11.618;2023-12-28T19:36:30;9.10;75.40
27368;DHT22;14839;48.106;11.618;2023-12-28T19:38:56;9.10;76.70
27368;DHT22;14839;48.106;11.618;2023-12-28T19:41:21;9.10;78.10
27368;DHT22;14839;48.106;11.618;2023-12-28T19:43:47;9.00;78.50
27368;DHT22;14839;48.106;11.618;2023-12-28T19:46:13;8.90;77.20
27368;DHT22;14839;48.106;11.618;2023-12-28T19:48:40;8.90;79.30
27368;DHT22;14839;48.106;11.618;2023-12-28T19:51:05;8.80;80.60
27368;DHT22;14839;48.106;11.618;2023-12-28T19:53:31;8.80;81.50
27368;DHT22;14839;48.106;11.618;2023-12-28T19:55:57;8.70;82.70
27368;DHT22;14839;48.106;11.618;2023-12-28T19:58:23;8.70;82.30
27368;DHT22;14839;48.106;11.618;2023-12-28T20:00:48;8.60;81.40
27368;DHT22;14839;48.106;11.618;2023-12-28T20:03:14;8.60;81.20
27368;DHT22;14839;48.106;11.618;2023-12-28T20:05:40;8.60;81.10
27368;DHT22;14839;48.106;11.618;2023-12-28T20:08:05;8.60;79.60
27368;DHT22;14839;48.106;11.618;2023-12-28T20:10:31;8.60;80.20
27368;DHT22;14839;48.106;11.618;2023-12-28T20:12:57;8.60;80.50
27368;DHT22;14839;48.106;11.618;2023-12-28T20:15:24;8.60;81.40
27368;DHT22;14839;48.106;11.618;2023-12-28T20:17:50;8.60;81.40
27368;DHT22;14839;48.106;11.618;2023-12-28T20:20:16;8.50;80.90
27368;DHT22;14839;48.106;11.618;2023-12-28T20:22:42;8.50;81.10
27368;DHT22;14839;48.106;11.618;2023-12-28T20:25:08;8.50;79.90
27368;DHT22;14839;48.106;11.618;2023-12-28T20:27:35;8.40;81.40
27368;DHT22;14839;48.106;11.618;2023-12-28T20:30:01;8.40;80.80